sensor_id;sensor_type;location;lat;lon;timestamp;temperature;humidity
41884;DHT22;27566;50.930;5.328;2023-07-13T00:00:04;17.90;63.00
41884;DHT22;27566;50.930;5.328;2023-07-13T00:02:35;17.90;63.00
41884;DHT22;27566;50.930;5.328;2023-07-13T00:05:00;17.90;63.00
41884;DHT22;27566;50.930;5.328;2023-07-13T00:07:26;17.90;63.00
41884;DHT22;27566;50.930;5.328;2023-07-13T00:09:52;17.80;63.20
41884;DHT22;27566;50.930;5.328;2023-07-13T00:12:34;17.90;63.50
41884;DHT22;27566;50.930;5.328;2023-07-13T00:15:06;17.90;63.30
41884;DHT22;27566;50.930;5.328;2023-07-13T00:17:33;17.80;63.40
41884;DHT22;27566;50.930;5.328;2023-07-13T00:19:58;17.80;63.60
41884;DHT22;27566;50.930;5.328;2023-07-13T00:22:25;17.80;63.70
41884;DHT22;27566;50.930;5.328;2023-07-13T00:24:54;17.80;63.80
41884;DHT22;27566;50.930;5.328;2023-07-13T00:27:23;17.70;63.80
41884;DHT22;27566;50.930;5.328;2023-07-13T00:29:51;17.80;63.90
41884;DHT22;27566;50.930;5.328;2023-07-13T00:32:17;17.80;64.00
41884;DHT22;27566;50.930;5.328;2023-07-13T00:34:43;17.80;64.00
41884;DHT22;27566;50.930;5.328;2023-07-13T00:37:09;17.80;64.00
41884;DHT22;27566;50.930;5.328;2023-07-13T00:39:34;17.80;64.30
41884;DHT22;27566;50.930;5.328;2023-07-13T00:42:01;17.80;64.20
41884;DHT22;27566;50.930;5.328;2023-07-13T00:44:27;17.80;64.00
41884;DHT22;27566;50.930;5.328;2023-07-13T00:46:53;17.80;64.30
41884;DHT22;27566;50.930;5.328;2023-07-13T00:49:23;17.80;64.60
41884;DHT22;27566;50.930;5.328;2023-07-13T00:51:54;17.80;64.60
41884;DHT22;27566;50.930;5.328;2023-07-13T00:54:29;17.80;64.80
41884;DHT22;27566;50.930;5.328;2023-07-13T00:56:59;17.70;64.60
41884;DHT22;27566;50.930;5.328;2023-07-13T00:59:26;17.70;64.90
41884;DHT22;27566;50.930;5.328;2023-07-13T01:01:52;17.80;65.20
41884;DHT22;27566;50.930;5.328;2023-07-13T01:04:18;17.70;65.10
41884;DHT22;27566;50.930;5.328;2023-07-13T01:06:44;17.70;65.10
41884;DHT22;27566;50.930;5.328;2023-07-13T01:09:14;17.70;65.30
41884;DHT22;27566;50.930;5.328;2023-07-13T01:11:41;17.60;65.60
41884;DHT22;27566;50.930;5.328;2023-07-13T01:14:08;17.60;65.90
41884;DHT22;27566;50.930;5.328;2023-07-13T01:16:35;17.50;65.80
41884;DHT22;27566;50.930;5.328;2023-07-13T01:19:07;17.50;66.10
41884;DHT22;27566;50.930;5.328;2023-07-13T01:21:37;17.60;66.70
41884;DHT22;27566;50.930;5.328;2023-07-13T01:24:03;17.60;66.70
41884;DHT22;27566;50.930;5.328;2023-07-13T01:26:29;17.60;66.50
41884;DHT22;27566;50.930;5.328;2023-07-13T01:28:55;17.60;66.70
41884;DHT22;27566;50.930;5.328;2023-07-13T01:31:22;17.50;66.60
41884;DHT22;27566;50.930;5.328;2023-07-13T01:33:48;17.50;66.90
41884;DHT22;27566;50.930;5.328;2023-07-13T01:36:14;17.40;66.90
41884;DHT22;27566;50.930;5.328;2023-07-13T01:38:39;17.40;67.00
41884;DHT22;27566;50.930;5.328;2023-07-13T01:41:05;17.40;67.30
41884;DHT22;27566;50.930;5.328;2023-07-13T01:43:31;17.40;67.30
41884;DHT22;27566;50.930;5.328;2023-07-13T01:45:58;17.40;67.40
41884;DHT22;27566;50.930;5.328;2023-07-13T01:48:24;17.40;67.50
41884;DHT22;27566;50.930;5.328;2023-07-13T01:50:49;17.30;67.60
41884;DHT22;27566;50.930;5.328;2023-07-13T01:53:15;17.30;68.00
41884;DHT22;27566;50.930;5.328;2023-07-13T01:55:41;17.30;68.00
41884;DHT22;27566;50.930;5.328;2023-07-13T01:58:08;17.30;68.20
41884;DHT22;27566;50.930;5.328;2023-07-13T02:00:34;17.30;68.30
41884;DHT22;27566;50.930;5.328;2023-07-13T02:02:59;17.30;68.60
41884;DHT22;27566;50.930;5.328;2023-07-13T02:05:25;17.30;68.50
41884;DHT22;27566;50.930;5.328;2023-07-13T02:07:51;17.30;68.70
41884;DHT22;27566;50.930;5.328;2023-07-13T02:10:18;17.20;68.80
41884;DHT22;27566;50.930;5.328;2023-07-13T02:12:45;17.20;69.70
41884;DHT22;27566;50.930;5.328;2023-07-13T02:15:11;17.10;69.00
41884;DHT22;27566;50.930;5.328;2023-07-13T02:17:37;17.10;69.30
41884;DHT22;27566;50.930;5.328;2023-07-13T02:20:05;17.10;69.50
41884;DHT22;27566;50.930;5.328;2023-07-13T02:22:31;17.00;69.80
41884;DHT22;27566;50.930;5.328;2023-07-13T02:24:57;17.00;70.50
41884;DHT22;27566;50.930;5.328;2023-07-13T02:27:23;17.00;70.30
41884;DHT22;27566;50.930;5.328;2023-07-13T02:29:49;17.00;70.10
41884;DHT22;27566;50.930;5.328;2023-07-13T02:32:17;17.00;70.30
41884;DHT22;27566;50.930;5.328;2023-07-13T02:34:43;17.00;70.40
41884;DHT22;27566;50.930;5.328;2023-07-13T02:37:09;17.00;70.60
41884;DHT22;27566;50.930;5.328;2023-07-13T02:39:35;16.90;70.80
41884;DHT22;27566;50.930;5.328;2023-07-13T02:42:01;16.90;71.00
41884;DHT22;27566;50.930;5.328;2023-07-13T02:44:27;16.90;71.00
41884;DHT22;27566;50.930;5.328;2023-07-13T02:46:53;16.90;71.10
41884;DHT22;27566;50.930;5.328;2023-07-13T02:49:19;16.80;71.30
41884;DHT22;27566;50.930;5.328;2023-07-13T02:51:45;16.80;71.70
41884;DHT22;27566;50.930;5.328;2023-07-13T02:54:11;16.80;71.60
41884;DHT22;27566;50.930;5.328;2023-07-13T02:56:39;16.80;71.60
41884;DHT22;27566;50.930;5.328;2023-07-13T02:59:06;16.80;72.10
41884;DHT22;27566;50.930;5.328;2023-07-13T03:01:31;16.80;71.90
41884;DHT22;27566;50.930;5.328;2023-07-13T03:04:00;16.80;72.00
41884;DHT22;27566;50.930;5.328;2023-07-13T03:06:26;16.80;72.00
41884;DHT22;27566;50.930;5.328;2023-07-13T03:08:56;16.80;72.30
41884;DHT22;27566;50.930;5.328;2023-07-13T03:11:22;16.80;72.70
41884;DHT22;27566;50.930;5.328;2023-07-13T03:13:48;16.90;72.50
41884;DHT22;27566;50.930;5.328;2023-07-13T03:16:15;17.00;72.50
41884;DHT22;27566;50.930;5.328;2023-07-13T03:18:41;17.00;72.50
41884;DHT22;27566;50.930;5.328;2023-07-13T03:21:08;17.00;72.20
41884;DHT22;27566;50.930;5.328;2023-07-13T03:23:34;17.00;72.10
41884;DHT22;27566;50.930;5.328;2023-07-13T03:26:05;17.10;72.20
41884;DHT22;27566;50.930;5.328;2023-07-13T03:28:31;17.10;72.00
41884;DHT22;27566;50.930;5.328;2023-07-13T03:31:06;17.10;71.90
41884;DHT22;27566;50.930;5.328;2023-07-13T03:33:32;17.10;72.30
41884;DHT22;27566;50.930;5.328;2023-07-13T03:35:58;17.10;72.30
41884;DHT22;27566;50.930;5.328;2023-07-13T03:38:24;17.20;72.40
41884;DHT22;27566;50.930;5.328;2023-07-13T03:40:50;17.30;72.50
41884;DHT22;27566;50.930;5.328;2023-07-13T03:43:16;17.40;72.30
41884;DHT22;27566;50.930;5.328;2023-07-13T03:45:42;17.40;72.00
41884;DHT22;27566;50.930;5.328;2023-07-13T03:48:09;17.50;71.80
41884;DHT22;27566;50.930;5.328;2023-07-13T03:50:35;17.60;71.60
41884;DHT22;27566;50.930;5.328;2023-07-13T03:53:01;17.70;71.50
41884;DHT22;27566;50.930;5.328;2023-07-13T03:55:27;17.80;71.10
41884;DHT22;27566;50.930;5.328;2023-07-13T03:57:58;17.90;70.50
41884;DHT22;27566;50.930;5.328;2023-07-13T04:00:25;18.00;70.00
41884;DHT22;27566;50.930;5.328;2023-07-13T04:02:51;18.10;69.70
41884;DHT22;27566;50.930;5.328;2023-07-13T04:05:17;18.20;69.50
41884;DHT22;27566;50.930;5.328;2023-07-13T04:07:43;18.30;69.20
41884;DHT22;27566;50.930;5.328;2023-07-13T04:10:09;18.40;68.90
41884;DHT22;27566;50.930;5.328;2023-07-13T04:12:36;18.40;68.60
41884;DHT22;27566;50.930;5.328;2023-07-13T04:15:01;18.50;68.40
41884;DHT22;27566;50.930;5.328;2023-07-13T04:17:27;18.50;68.10
41884;DHT22;27566;50.930;5.328;2023-07-13T04:19:53;18.60;68.20
41884;DHT22;27566;50.930;5.328;2023-07-13T04:22:19;18.60;67.90
41884;DHT22;27566;50.930;5.328;2023-07-13T04:24:45;18.60;67.70
41884;DHT22;27566;50.930;5.328;2023-07-13T04:27:11;18.70;67.60
41884;DHT22;27566;50.930;5.328;2023-07-13T04:29:37;18.80;67.30
41884;DHT22;27566;50.930;5.328;2023-07-13T04:32:03;18.90;66.80
41884;DHT22;27566;50.930;5.328;2023-07-13T04:34:29;19.00;66.70
41884;DHT22;27566;50.930;5.328;2023-07-13T04:36:55;19.00;66.60
41884;DHT22;27566;50.930;5.328;2023-07-13T04:39:21;19.10;66.40
41884;DHT22;27566;50.930;5.328;2023-07-13T04:41:47;19.20;66.10
41884;DHT22;27566;50.930;5.328;2023-07-13T04:44:13;19.30;65.80
41884;DHT22;27566;50.930;5.328;2023-07-13T04:46:39;19.30;65.50
41884;DHT22;27566;50.930;5.328;2023-07-13T04:49:05;19.50;65.30
41884;DHT22;27566;50.930;5.328;2023-07-13T04:51:31;19.60;64.70
41884;DHT22;27566;50.930;5.328;2023-07-13T04:53:56;19.70;64.50
41884;DHT22;27566;50.930;5.328;2023-07-13T04:56:22;19.70;64.10
41884;DHT22;27566;50.930;5.328;2023-07-13T04:58:48;19.90;63.80
41884;DHT22;27566;50.930;5.328;2023-07-13T05:01:14;19.90;63.60
41884;DHT22;27566;50.930;5.328;2023-07-13T05:03:39;20.00;63.30
41884;DHT22;27566;50.930;5.328;2023-07-13T05:06:07;20.00;63.30
41884;DHT22;27566;50.930;5.328;2023-07-13T05:08:35;20.00;63.10
41884;DHT22;27566;50.930;5.328;2023-07-13T05:11:02;20.00;63.20
41884;DHT22;27566;50.930;5.328;2023-07-13T05:13:29;20.00;63.30
41884;DHT22;27566;50.930;5.328;2023-07-13T05:15:56;20.00;63.20
41884;DHT22;27566;50.930;5.328;2023-07-13T05:18:23;20.10;63.20
41884;DHT22;27566;50.930;5.328;2023-07-13T05:21:06;20.20;63.20
41884;DHT22;27566;50.930;5.328;2023-07-13T05:23:34;20.20;63.10
41884;DHT22;27566;50.930;5.328;2023-07-13T05:26:01;20.30;62.90
41884;DHT22;27566;50.930;5.328;2023-07-13T05:28:28;20.40;62.90
41884;DHT22;27566;50.930;5.328;2023-07-13T05:30:54;20.40;62.60
41884;DHT22;27566;50.930;5.328;2023-07-13T05:33:20;20.60;62.30
41884;DHT22;27566;50.930;5.328;2023-07-13T05:35:46;20.80;62.10
41884;DHT22;27566;50.930;5.328;2023-07-13T05:38:13;21.00;61.30
41884;DHT22;27566;50.930;5.328;2023-07-13T05:40:39;21.10;60.60
41884;DHT22;27566;50.930;5.328;2023-07-13T05:43:05;21.10;60.60
41884;DHT22;27566;50.930;5.328;2023-07-13T05:45:31;21.20;60.50
41884;DHT22;27566;50.930;5.328;2023-07-13T05:47:57;21.20;60.40
41884;DHT22;27566;50.930;5.328;2023-07-13T05:50:23;21.20;60.40
41884;DHT22;27566;50.930;5.328;2023-07-13T05:52:49;21.30;60.20
41884;DHT22;27566;50.930;5.328;2023-07-13T05:55:15;21.30;59.90
41884;DHT22;27566;50.930;5.328;2023-07-13T05:57:41;21.40;60.00
41884;DHT22;27566;50.930;5.328;2023-07-13T06:00:07;21.30;60.10
41884;DHT22;27566;50.930;5.328;2023-07-13T06:02:33;21.40;60.00
41884;DHT22;27566;50.930;5.328;2023-07-13T06:04:59;21.40;60.00
41884;DHT22;27566;50.930;5.328;2023-07-13T06:07:25;21.50;60.00
41884;DHT22;27566;50.930;5.328;2023-07-13T06:09:51;21.50;59.90
41884;DHT22;27566;50.930;5.328;2023-07-13T06:12:17;21.60;59.80
41884;DHT22;27566;50.930;5.328;2023-07-13T06:14:42;21.70;59.50
41884;DHT22;27566;50.930;5.328;2023-07-13T06:17:08;21.80;59.40
41884;DHT22;27566;50.930;5.328;2023-07-13T06:19:35;21.90;59.10
41884;DHT22;27566;50.930;5.328;2023-07-13T06:22:01;22.00;58.80
41884;DHT22;27566;50.930;5.328;2023-07-13T06:24:27;22.00;59.00
41884;DHT22;27566;50.930;5.328;2023-07-13T06:26:53;22.10;59.10
41884;DHT22;27566;50.930;5.328;2023-07-13T06:29:18;22.20;58.50
41884;DHT22;27566;50.930;5.328;2023-07-13T06:31:44;22.40;58.40
41884;DHT22;27566;50.930;5.328;2023-07-13T06:34:10;22.40;57.90
41884;DHT22;27566;50.930;5.328;2023-07-13T06:36:36;22.50;57.80
41884;DHT22;27566;50.930;5.328;2023-07-13T06:39:04;22.60;57.50
41884;DHT22;27566;50.930;5.328;2023-07-13T06:41:30;22.60;57.50
41884;DHT22;27566;50.930;5.328;2023-07-13T06:43:56;22.80;57.60
41884;DHT22;27566;50.930;5.328;2023-07-13T06:46:23;23.00;56.80
41884;DHT22;27566;50.930;5.328;2023-07-13T06:48:49;23.10;56.50
41884;DHT22;27566;50.930;5.328;2023-07-13T06:51:15;23.20;56.20
41884;DHT22;27566;50.930;5.328;2023-07-13T06:53:41;23.30;56.00
41884;DHT22;27566;50.930;5.328;2023-07-13T06:56:09;23.30;55.80
41884;DHT22;27566;50.930;5.328;2023-07-13T06:58:36;23.30;55.60
41884;DHT22;27566;50.930;5.328;2023-07-13T07:01:03;23.30;55.50
41884;DHT22;27566;50.930;5.328;2023-07-13T07:03:29;23.40;55.50
41884;DHT22;27566;50.930;5.328;2023-07-13T07:06:10;23.60;54.90
41884;DHT22;27566;50.930;5.328;2023-07-13T07:08:37;23.80;54.70
41884;DHT22;27566;50.930;5.328;2023-07-13T07:11:03;24.10;54.50
41884;DHT22;27566;50.930;5.328;2023-07-13T07:13:29;24.30;53.80
41884;DHT22;27566;50.930;5.328;2023-07-13T07:15:55;24.40;53.10
41884;DHT22;27566;50.930;5.328;2023-07-13T07:18:21;24.40;52.80
41884;DHT22;27566;50.930;5.328;2023-07-13T07:20:49;24.40;52.60
41884;DHT22;27566;50.930;5.328;2023-07-13T07:23:15;24.40;52.50
41884;DHT22;27566;50.930;5.328;2023-07-13T07:25:43;24.30;52.60
41884;DHT22;27566;50.930;5.328;2023-07-13T07:28:09;24.30;52.70
41884;DHT22;27566;50.930;5.328;2023-07-13T07:30:35;24.30;52.70
41884;DHT22;27566;50.930;5.328;2023-07-13T07:33:01;24.40;52.60
41884;DHT22;27566;50.930;5.328;2023-07-13T07:35:27;24.50;52.30
41884;DHT22;27566;50.930;5.328;2023-07-13T07:37:53;24.60;52.30
41884;DHT22;27566;50.930;5.328;2023-07-13T07:40:19;24.70;52.20
41884;DHT22;27566;50.930;5.328;2023-07-13T07:42:45;25.00;51.90
41884;DHT22;27566;50.930;5.328;2023-07-13T07:45:10;25.10;51.10
41884;DHT22;27566;50.930;5.328;2023-07-13T07:47:37;25.20;50.60
41884;DHT22;27566;50.930;5.328;2023-07-13T07:50:04;25.40;50.30
41884;DHT22;27566;50.930;5.328;2023-07-13T07:52:30;25.50;50.30
41884;DHT22;27566;50.930;5.328;2023-07-13T07:54:56;25.70;49.80
41884;DHT22;27566;50.930;5.328;2023-07-13T07:57:22;26.00;49.30
41884;DHT22;27566;50.930;5.328;2023-07-13T07:59:48;26.10;49.00
41884;DHT22;27566;50.930;5.328;2023-07-13T08:02:14;26.20;48.70
41884;DHT22;27566;50.930;5.328;2023-07-13T08:04:39;26.30;48.50
41884;DHT22;27566;50.930;5.328;2023-07-13T08:07:09;26.50;48.20
41884;DHT22;27566;50.930;5.328;2023-07-13T08:09:35;26.60;47.60
41884;DHT22;27566;50.930;5.328;2023-07-13T08:12:01;26.80;47.10
41884;DHT22;27566;50.930;5.328;2023-07-13T08:14:27;27.10;46.70
41884;DHT22;27566;50.930;5.328;2023-07-13T08:16:52;27.40;46.10
41884;DHT22;27566;50.930;5.328;2023-07-13T08:19:19;27.60;45.60
41884;DHT22;27566;50.930;5.328;2023-07-13T08:21:45;27.80;45.40
41884;DHT22;27566;50.930;5.328;2023-07-13T08:24:14;28.00;45.20
41884;DHT22;27566;50.930;5.328;2023-07-13T08:26:40;28.10;44.90
41884;DHT22;27566;50.930;5.328;2023-07-13T08:29:06;28.20;45.60
41884;DHT22;27566;50.930;5.328;2023-07-13T08:31:32;28.20;44.50
41884;DHT22;27566;50.930;5.328;2023-07-13T08:33:57;28.20;44.30
41884;DHT22;27566;50.930;5.328;2023-07-13T08:36:25;28.20;44.30
41884;DHT22;27566;50.930;5.328;2023-07-13T08:38:51;28.10;44.60
41884;DHT22;27566;50.930;5.328;2023-07-13T08:41:17;28.10;44.60
41884;DHT22;27566;50.930;5.328;2023-07-13T08:43:55;28.10;45.20
41884;DHT22;27566;50.930;5.328;2023-07-13T08:46:30;28.10;45.10
41884;DHT22;27566;50.930;5.328;2023-07-13T08:49:23;28.00;44.40
41884;DHT22;27566;50.930;5.328;2023-07-13T08:51:53;28.10;44.70
41884;DHT22;27566;50.930;5.328;2023-07-13T08:54:38;28.20;44.10
41884;DHT22;27566;50.930;5.328;2023-07-13T08:57:15;28.40;44.60
41884;DHT22;27566;50.930;5.328;2023-07-13T08:59:41;28.40;43.70
41884;DHT22;27566;50.930;5.328;2023-07-13T09:05:13;28.60;43.50
41884;DHT22;27566;50.930;5.328;2023-07-13T09:13:10;28.20;43.60
41884;DHT22;27566;50.930;5.328;2023-07-13T09:15:44;28.10;44.00
41884;DHT22;27566;50.930;5.328;2023-07-13T09:18:23;28.00;44.00
41884;DHT22;27566;50.930;5.328;2023-07-13T09:20:56;27.90;44.30
41884;DHT22;27566;50.930;5.328;2023-07-13T09:23:24;27.70;44.10
41884;DHT22;27566;50.930;5.328;2023-07-13T09:28:32;27.20;45.30
41884;DHT22;27566;50.930;5.328;2023-07-13T09:33:43;27.10;45.80
41884;DHT22;27566;50.930;5.328;2023-07-13T09:36:30;27.30;45.70
41884;DHT22;27566;50.930;5.328;2023-07-13T09:44:36;27.60;44.50
41884;DHT22;27566;50.930;5.328;2023-07-13T09:47:03;27.80;44.10
41884;DHT22;27566;50.930;5.328;2023-07-13T09:49:34;27.80;43.80
41884;DHT22;27566;50.930;5.328;2023-07-13T09:52:06;27.80;43.80
41884;DHT22;27566;50.930;5.328;2023-07-13T09:54:36;27.70;43.80
41884;DHT22;27566;50.930;5.328;2023-07-13T09:57:08;27.60;44.10
41884;DHT22;27566;50.930;5.328;2023-07-13T09:59:41;27.40;44.30
41884;DHT22;27566;50.930;5.328;2023-07-13T10:02:28;27.20;44.70
41884;DHT22;27566;50.930;5.328;2023-07-13T10:05:06;26.90;44.90
41884;DHT22;27566;50.930;5.328;2023-07-13T10:07:38;26.80;45.30
41884;DHT22;27566;50.930;5.328;2023-07-13T10:10:14;26.80;45.40
41884;DHT22;27566;50.930;5.328;2023-07-13T10:12:40;27.10;44.90
41884;DHT22;27566;50.930;5.328;2023-07-13T10:15:26;27.30;44.20
41884;DHT22;27566;50.930;5.328;2023-07-13T10:17:54;27.30;44.20
41884;DHT22;27566;50.930;5.328;2023-07-13T10:20:21;27.40;44.00
41884;DHT22;27566;50.930;5.328;2023-07-13T10:23:02;27.50;43.80
41884;DHT22;27566;50.930;5.328;2023-07-13T10:25:32;27.80;43.50
41884;DHT22;27566;50.930;5.328;2023-07-13T10:30:47;28.30;42.60
41884;DHT22;27566;50.930;5.328;2023-07-13T10:33:14;28.10;41.70
41884;DHT22;27566;50.930;5.328;2023-07-13T10:35:43;28.00;42.20
41884;DHT22;27566;50.930;5.328;2023-07-13T10:38:15;27.90;42.50
41884;DHT22;27566;50.930;5.328;2023-07-13T10:43:18;27.40;43.30
41884;DHT22;27566;50.930;5.328;2023-07-13T10:45:47;27.40;43.60
41884;DHT22;27566;50.930;5.328;2023-07-13T10:48:16;27.30;43.90
41884;DHT22;27566;50.930;5.328;2023-07-13T10:50:45;27.30;43.90
41884;DHT22;27566;50.930;5.328;2023-07-13T10:53:33;27.00;44.40
41884;DHT22;27566;50.930;5.328;2023-07-13T10:56:04;26.60;45.10
41884;DHT22;27566;50.930;5.328;2023-07-13T10:58:41;26.40;45.80
41884;DHT22;27566;50.930;5.328;2023-07-13T11:01:13;26.60;46.20
41884;DHT22;27566;50.930;5.328;2023-07-13T11:04:14;26.90;45.90
41884;DHT22;27566;50.930;5.328;2023-07-13T11:06:43;27.50;44.90
41884;DHT22;27566;50.930;5.328;2023-07-13T11:09:30;28.00;43.70
41884;DHT22;27566;50.930;5.328;2023-07-13T11:13:01;28.40;42.50
41884;DHT22;27566;50.930;5.328;2023-07-13T11:19:54;29.50;40.30
41884;DHT22;27566;50.930;5.328;2023-07-13T11:22:43;29.70;39.30
41884;DHT22;27566;50.930;5.328;2023-07-13T11:25:28;29.70;39.00
41884;DHT22;27566;50.930;5.328;2023-07-13T11:28:17;29.50;38.80
41884;DHT22;27566;50.930;5.328;2023-07-13T11:30:59;29.40;39.20
41884;DHT22;27566;50.930;5.328;2023-07-13T11:33:49;29.40;39.20
41884;DHT22;27566;50.930;5.328;2023-07-13T11:36:17;29.50;38.60
41884;DHT22;27566;50.930;5.328;2023-07-13T11:39:11;29.30;38.40
41884;DHT22;27566;50.930;5.328;2023-07-13T11:41:43;29.10;38.60
41884;DHT22;27566;50.930;5.328;2023-07-13T11:44:18;29.00;39.20
41884;DHT22;27566;50.930;5.328;2023-07-13T11:46:56;28.90;39.10
41884;DHT22;27566;50.930;5.328;2023-07-13T11:49:24;28.80;39.80
41884;DHT22;27566;50.930;5.328;2023-07-13T11:51:53;28.90;39.90
41884;DHT22;27566;50.930;5.328;2023-07-13T11:54:26;29.10;39.50
41884;DHT22;27566;50.930;5.328;2023-07-13T11:56:54;29.20;39.40
41884;DHT22;27566;50.930;5.328;2023-07-13T11:59:20;29.40;39.10
41884;DHT22;27566;50.930;5.328;2023-07-13T12:01:54;29.40;38.90
41884;DHT22;27566;50.930;5.328;2023-07-13T12:04:32;29.50;38.50
41884;DHT22;27566;50.930;5.328;2023-07-13T12:07:05;29.60;38.20
41884;DHT22;27566;50.930;5.328;2023-07-13T12:09:33;29.60;37.20
41884;DHT22;27566;50.930;5.328;2023-07-13T12:12:02;29.50;37.70
41884;DHT22;27566;50.930;5.328;2023-07-13T12:14:28;29.50;37.60
41884;DHT22;27566;50.930;5.328;2023-07-13T12:16:55;29.60;38.00
41884;DHT22;27566;50.930;5.328;2023-07-13T12:19:23;29.80;37.90
41884;DHT22;27566;50.930;5.328;2023-07-13T12:21:53;29.90;37.60
41884;DHT22;27566;50.930;5.328;2023-07-13T12:24:21;29.90;37.50
41884;DHT22;27566;50.930;5.328;2023-07-13T12:27:02;29.90;37.50
41884;DHT22;27566;50.930;5.328;2023-07-13T12:29:30;30.00;37.00
41884;DHT22;27566;50.930;5.328;2023-07-13T12:31:56;30.00;36.30
41884;DHT22;27566;50.930;5.328;2023-07-13T12:34:24;29.90;36.40
41884;DHT22;27566;50.930;5.328;2023-07-13T12:36:55;30.10;36.90
41884;DHT22;27566;50.930;5.328;2023-07-13T12:39:37;30.40;36.80
41884;DHT22;27566;50.930;5.328;2023-07-13T12:42:19;30.80;36.20
41884;DHT22;27566;50.930;5.328;2023-07-13T12:45:24;31.00;35.70
41884;DHT22;27566;50.930;5.328;2023-07-13T12:47:57;30.90;35.80
41884;DHT22;27566;50.930;5.328;2023-07-13T12:50:33;30.80;35.30
41884;DHT22;27566;50.930;5.328;2023-07-13T12:53:02;30.70;35.20
41884;DHT22;27566;50.930;5.328;2023-07-13T12:55:44;30.70;35.00
41884;DHT22;27566;50.930;5.328;2023-07-13T12:58:36;30.70;34.60
41884;DHT22;27566;50.930;5.328;2023-07-13T13:01:03;30.80;34.50
41884;DHT22;27566;50.930;5.328;2023-07-13T13:03:37;30.60;34.10
41884;DHT22;27566;50.930;5.328;2023-07-13T13:08:41;30.20;34.50
41884;DHT22;27566;50.930;5.328;2023-07-13T13:11:09;29.90;34.90
41884;DHT22;27566;50.930;5.328;2023-07-13T13:13:35;29.50;35.30
41884;DHT22;27566;50.930;5.328;2023-07-13T13:16:20;29.10;35.60
41884;DHT22;27566;50.930;5.328;2023-07-13T13:18:47;28.60;36.00
41884;DHT22;27566;50.930;5.328;2023-07-13T13:21:14;28.20;36.90
41884;DHT22;27566;50.930;5.328;2023-07-13T13:23:40;27.80;37.60
41884;DHT22;27566;50.930;5.328;2023-07-13T13:26:12;27.50;38.10
41884;DHT22;27566;50.930;5.328;2023-07-13T13:28:39;27.20;39.00
41884;DHT22;27566;50.930;5.328;2023-07-13T13:31:05;26.90;41.30
41884;DHT22;27566;50.930;5.328;2023-07-13T13:33:31;26.20;43.80
41884;DHT22;27566;50.930;5.328;2023-07-13T13:35:57;25.40;48.10
41884;DHT22;27566;50.930;5.328;2023-07-13T13:38:26;24.40;50.40
41884;DHT22;27566;50.930;5.328;2023-07-13T13:40:52;23.60;52.20
41884;DHT22;27566;50.930;5.328;2023-07-13T13:43:24;23.10;52.30
41884;DHT22;27566;50.930;5.328;2023-07-13T13:45:56;22.70;53.50
41884;DHT22;27566;50.930;5.328;2023-07-13T13:48:33;22.50;54.20
41884;DHT22;27566;50.930;5.328;2023-07-13T13:51:00;22.40;54.40
41884;DHT22;27566;50.930;5.328;2023-07-13T13:53:26;22.30;54.90
41884;DHT22;27566;50.930;5.328;2023-07-13T13:55:52;22.20;55.10
41884;DHT22;27566;50.930;5.328;2023-07-13T13:58:21;22.10;55.70
41884;DHT22;27566;50.930;5.328;2023-07-13T14:00:47;21.90;56.60
41884;DHT22;27566;50.930;5.328;2023-07-13T14:03:18;21.70;57.40
41884;DHT22;27566;50.930;5.328;2023-07-13T14:05:45;21.60;58.10
41884;DHT22;27566;50.930;5.328;2023-07-13T14:08:17;21.60;58.40
41884;DHT22;27566;50.930;5.328;2023-07-13T14:10:45;21.70;58.00
41884;DHT22;27566;50.930;5.328;2023-07-13T14:13:35;21.90;57.70
41884;DHT22;27566;50.930;5.328;2023-07-13T14:16:02;22.00;57.60
41884;DHT22;27566;50.930;5.328;2023-07-13T14:18:28;22.20;56.90
41884;DHT22;27566;50.930;5.328;2023-07-13T14:20:53;22.50;56.20
41884;DHT22;27566;50.930;5.328;2023-07-13T14:23:19;22.70;55.50
41884;DHT22;27566;50.930;5.328;2023-07-13T14:25:46;23.00;55.30
41884;DHT22;27566;50.930;5.328;2023-07-13T14:28:26;23.40;54.60
41884;DHT22;27566;50.930;5.328;2023-07-13T14:30:53;23.70;53.40
41884;DHT22;27566;50.930;5.328;2023-07-13T14:33:20;23.80;52.60
41884;DHT22;27566;50.930;5.328;2023-07-13T14:35:47;23.90;52.70
41884;DHT22;27566;50.930;5.328;2023-07-13T14:38:18;24.00;52.70
41884;DHT22;27566;50.930;5.328;2023-07-13T14:40:45;24.00;52.20
41884;DHT22;27566;50.930;5.328;2023-07-13T14:43:12;24.10;52.20
41884;DHT22;27566;50.930;5.328;2023-07-13T14:45:48;24.20;51.90
41884;DHT22;27566;50.930;5.328;2023-07-13T14:48:23;24.20;51.80
41884;DHT22;27566;50.930;5.328;2023-07-13T14:50:54;24.40;52.20
41884;DHT22;27566;50.930;5.328;2023-07-13T14:53:21;24.60;51.70
41884;DHT22;27566;50.930;5.328;2023-07-13T14:55:47;25.00;50.70
41884;DHT22;27566;50.930;5.328;2023-07-13T14:58:13;25.60;49.80
41884;DHT22;27566;50.930;5.328;2023-07-13T15:00:40;26.10;48.20
41884;DHT22;27566;50.930;5.328;2023-07-13T15:03:17;26.60;46.60
41884;DHT22;27566;50.930;5.328;2023-07-13T15:05:45;27.00;45.30
41884;DHT22;27566;50.930;5.328;2023-07-13T15:08:11;27.30;44.40
41884;DHT22;27566;50.930;5.328;2023-07-13T15:10:37;27.50;43.40
41884;DHT22;27566;50.930;5.328;2023-07-13T15:13:20;27.60;42.90
41884;DHT22;27566;50.930;5.328;2023-07-13T15:15:53;27.70;42.90
41884;DHT22;27566;50.930;5.328;2023-07-13T15:18:22;27.80;42.10
41884;DHT22;27566;50.930;5.328;2023-07-13T15:20:50;27.80;42.10
41884;DHT22;27566;50.930;5.328;2023-07-13T15:23:18;27.90;40.90
41884;DHT22;27566;50.930;5.328;2023-07-13T15:25:45;27.90;41.20
41884;DHT22;27566;50.930;5.328;2023-07-13T15:28:11;27.80;41.20
41884;DHT22;27566;50.930;5.328;2023-07-13T15:30:55;27.80;41.40
41884;DHT22;27566;50.930;5.328;2023-07-13T15:33:29;27.60;41.30
41884;DHT22;27566;50.930;5.328;2023-07-13T15:35:55;27.40;41.80
41884;DHT22;27566;50.930;5.328;2023-07-13T15:38:29;27.40;42.20
41884;DHT22;27566;50.930;5.328;2023-07-13T15:40:56;27.50;42.10
41884;DHT22;27566;50.930;5.328;2023-07-13T15:43:22;27.60;41.70
41884;DHT22;27566;50.930;5.328;2023-07-13T15:45:49;27.60;41.80
41884;DHT22;27566;50.930;5.328;2023-07-13T15:48:19;27.60;41.40
41884;DHT22;27566;50.930;5.328;2023-07-13T15:50:52;27.60;41.90
41884;DHT22;27566;50.930;5.328;2023-07-13T15:53:24;27.60;41.60
41884;DHT22;27566;50.930;5.328;2023-07-13T15:55:51;27.70;41.60
41884;DHT22;27566;50.930;5.328;2023-07-13T15:58:18;27.90;41.00
41884;DHT22;27566;50.930;5.328;2023-07-13T16:00:45;28.00;39.80
41884;DHT22;27566;50.930;5.328;2023-07-13T16:03:12;28.10;39.40
41884;DHT22;27566;50.930;5.328;2023-07-13T16:05:38;28.10;39.30
41884;DHT22;27566;50.930;5.328;2023-07-13T16:08:06;28.10;38.50
41884;DHT22;27566;50.930;5.328;2023-07-13T16:10:37;28.00;38.60
41884;DHT22;27566;50.930;5.328;2023-07-13T16:13:15;27.90;38.90